sensor_id;sensor_type;location;lat;lon;timestamp;P1;durP1;ratioP1;P2;durP2;ratioP2
35959;SDS011;22043;50.970;7.192;2024-02-14T00:01:25;6.55;;;2.45;;
35959;SDS011;22043;50.970;7.192;2024-02-14T00:03:50;4.10;;;1.85;;
35959;SDS011;22043;50.970;7.192;2024-02-14T00:06:16;3.25;;;1.58;;
35959;SDS011;22043;50.970;7.192;2024-02-14T00:08:41;3.40;;;1.73;;
35959;SDS011;22043;50.970;7.192;2024-02-14T00:11:07;5.47;;;1.40;;
35959;SDS011;22043;50.970;7.192;2024-02-14T00:13:32;4.88;;;1.20;;
35959;SDS011;22043;50.970;7.192;2024-02-14T00:15:59;3.92;;;1.10;;
35959;SDS011;22043;50.970;7.192;2024-02-14T00:18:25;5.88;;;1.55;;
35959;SDS011;22043;50.970;7.192;2024-02-14T00:20:51;3.75;;;1.42;;
35959;SDS011;22043;50.970;7.192;2024-02-14T00:23:16;4.25;;;1.30;;
35959;SDS011;22043;50.970;7.192;2024-02-14T00:25:42;4.25;;;1.42;;
35959;SDS011;22043;50.970;7.192;2024-02-14T00:28:07;4.43;;;1.20;;
35959;SDS011;22043;50.970;7.192;2024-02-14T00:30:32;3.00;;;1.25;;
35959;SDS011;22043;50.970;7.192;2024-02-14T00:32:59;3.08;;;1.20;;
35959;SDS011;22043;50.970;7.192;2024-02-14T00:35:24;4.63;;;1.15;;
35959;SDS011;22043;50.970;7.192;2024-02-14T00:37:50;3.83;;;0.93;;
35959;SDS011;22043;50.970;7.192;2024-02-14T00:40:15;2.20;;;0.80;;
35959;SDS011;22043;50.970;7.192;2024-02-14T00:42:41;4.13;;;0.90;;
35959;SDS011;22043;50.970;7.192;2024-02-14T00:45:06;3.63;;;1.15;;
35959;SDS011;22043;50.970;7.192;2024-02-14T00:47:35;1.73;;;0.90;;
35959;SDS011;22043;50.970;7.192;2024-02-14T00:50:01;5.15;;;1.10;;
35959;SDS011;22043;50.970;7.192;2024-02-14T00:52:27;4.40;;;1.05;;
35959;SDS011;22043;50.970;7.192;2024-02-14T00:54:53;2.88;;;0.80;;
35959;SDS011;22043;50.970;7.192;2024-02-14T00:57:18;3.20;;;1.15;;
35959;SDS011;22043;50.970;7.192;2024-02-14T00:59:44;6.47;;;1.00;;
35959;SDS011;22043;50.970;7.192;2024-02-14T01:02:09;2.72;;;1.30;;
35959;SDS011;22043;50.970;7.192;2024-02-14T01:04:35;2.58;;;0.73;;
35959;SDS011;22043;50.970;7.192;2024-02-14T01:07:02;2.33;;;0.70;;
35959;SDS011;22043;50.970;7.192;2024-02-14T01:09:28;2.65;;;1.00;;
35959;SDS011;22043;50.970;7.192;2024-02-14T01:11:53;4.55;;;1.10;;
35959;SDS011;22043;50.970;7.192;2024-02-14T01:14:19;3.35;;;1.13;;
35959;SDS011;22043;50.970;7.192;2024-02-14T01:16:44;3.08;;;0.85;;
35959;SDS011;22043;50.970;7.192;2024-02-14T01:19:10;3.35;;;0.90;;
35959;SDS011;22043;50.970;7.192;2024-02-14T01:21:36;4.32;;;1.20;;
35959;SDS011;22043;50.970;7.192;2024-02-14T01:24:02;3.03;;;1.10;;
35959;SDS011;22043;50.970;7.192;2024-02-14T01:26:28;2.25;;;0.70;;
35959;SDS011;22043;50.970;7.192;2024-02-14T01:28:53;3.35;;;0.77;;
35959;SDS011;22043;50.970;7.192;2024-02-14T01:31:19;2.28;;;0.70;;
35959;SDS011;22043;50.970;7.192;2024-02-14T01:33:45;2.78;;;0.90;;
35959;SDS011;22043;50.970;7.192;2024-02-14T01:36:11;1.27;;;0.40;;
35959;SDS011;22043;50.970;7.192;2024-02-14T01:38:36;1.63;;;0.75;;
35959;SDS011;22043;50.970;7.192;2024-02-14T01:41:05;3.80;;;1.08;;
35959;SDS011;22043;50.970;7.192;2024-02-14T01:43:30;0.60;;;0.52;;
35959;SDS011;22043;50.970;7.192;2024-02-14T01:45:57;2.05;;;1.05;;
35959;SDS011;22043;50.970;7.192;2024-02-14T01:48:29;1.60;;;0.50;;
35959;SDS011;22043;50.970;7.192;2024-02-14T01:50:55;2.55;;;0.60;;
35959;SDS011;22043;50.970;7.192;2024-02-14T01:53:21;4.53;;;0.70;;
35959;SDS011;22043;50.970;7.192;2024-02-14T01:55:46;3.92;;;1.15;;
35959;SDS011;22043;50.970;7.192;2024-02-14T01:58:12;2.78;;;0.55;;
35959;SDS011;22043;50.970;7.192;2024-02-14T02:00:37;2.80;;;0.70;;
35959;SDS011;22043;50.970;7.192;2024-02-14T02:03:10;3.30;;;0.80;;
35959;SDS011;22043;50.970;7.192;2024-02-14T02:05:35;4.15;;;0.70;;
35959;SDS011;22043;50.970;7.192;2024-02-14T02:08:01;0.95;;;0.50;;
35959;SDS011;22043;50.970;7.192;2024-02-14T02:10:26;0.82;;;0.47;;
35959;SDS011;22043;50.970;7.192;2024-02-14T02:12:57;1.80;;;0.93;;
35959;SDS011;22043;50.970;7.192;2024-02-14T02:15:26;2.45;;;0.52;;
35959;SDS011;22043;50.970;7.192;2024-02-14T02:17:53;2.42;;;0.50;;
35959;SDS011;22043;50.970;7.192;2024-02-14T02:20:19;1.58;;;0.93;;
35959;SDS011;22043;50.970;7.192;2024-02-14T02:22:48;0.80;;;0.50;;
35959;SDS011;22043;50.970;7.192;2024-02-14T02:25:13;1.75;;;0.80;;
35959;SDS011;22043;50.970;7.192;2024-02-14T02:27:39;1.70;;;0.68;;
35959;SDS011;22043;50.970;7.192;2024-02-14T02:30:05;2.05;;;0.47;;
35959;SDS011;22043;50.970;7.192;2024-02-14T02:32:31;3.42;;;1.15;;
35959;SDS011;22043;50.970;7.192;2024-02-14T02:34:57;3.33;;;0.55;;
35959;SDS011;22043;50.970;7.192;2024-02-14T02:37:23;1.30;;;0.50;;
35959;SDS011;22043;50.970;7.192;2024-02-14T02:39:49;1.48;;;0.90;;
35959;SDS011;22043;50.970;7.192;2024-02-14T02:42:16;2.10;;;0.35;;
35959;SDS011;22043;50.970;7.192;2024-02-14T02:44:45;2.25;;;0.70;;
35959;SDS011;22043;50.970;7.192;2024-02-14T02:47:11;3.75;;;0.68;;
35959;SDS011;22043;50.970;7.192;2024-02-14T02:49:37;0.77;;;0.43;;
35959;SDS011;22043;50.970;7.192;2024-02-14T02:52:03;3.20;;;0.40;;
35959;SDS011;22043;50.970;7.192;2024-02-14T02:54:29;2.78;;;0.52;;
35959;SDS011;22043;50.970;7.192;2024-02-14T02:56:54;1.20;;;0.30;;
35959;SDS011;22043;50.970;7.192;2024-02-14T02:59:19;2.38;;;0.50;;
35959;SDS011;22043;50.970;7.192;2024-02-14T03:01:45;0.55;;;0.30;;
35959;SDS011;22043;50.970;7.192;2024-02-14T03:04:11;2.85;;;0.50;;
35959;SDS011;22043;50.970;7.192;2024-02-14T03:06:38;1.02;;;0.50;;
35959;SDS011;22043;50.970;7.192;2024-02-14T03:09:04;0.75;;;0.20;;
35959;SDS011;22043;50.970;7.192;2024-02-14T03:11:30;2.05;;;0.50;;
35959;SDS011;22043;50.970;7.192;2024-02-14T03:13:56;1.30;;;0.40;;
35959;SDS011;22043;50.970;7.192;2024-02-14T03:16:21;1.73;;;0.40;;
35959;SDS011;22043;50.970;7.192;2024-02-14T03:18:49;1.15;;;0.47;;
35959;SDS011;22043;50.970;7.192;2024-02-14T03:21:15;1.42;;;0.50;;
35959;SDS011;22043;50.970;7.192;2024-02-14T03:23:40;1.98;;;0.40;;
35959;SDS011;22043;50.970;7.192;2024-02-14T03:26:06;1.77;;;0.52;;
35959;SDS011;22043;50.970;7.192;2024-02-14T03:28:33;1.98;;;0.60;;
35959;SDS011;22043;50.970;7.192;2024-02-14T03:30:58;1.65;;;0.40;;
35959;SDS011;22043;50.970;7.192;2024-02-14T03:33:24;1.05;;;0.50;;
35959;SDS011;22043;50.970;7.192;2024-02-14T03:35:49;1.10;;;0.50;;
35959;SDS011;22043;50.970;7.192;2024-02-14T03:38:24;1.00;;;0.40;;
35959;SDS011;22043;50.970;7.192;2024-02-14T03:43:19;1.15;;;0.40;;
35959;SDS011;22043;50.970;7.192;2024-02-14T03:45:44;1.85;;;0.40;;
35959;SDS011;22043;50.970;7.192;2024-02-14T03:48:11;2.75;;;0.40;;
35959;SDS011;22043;50.970;7.192;2024-02-14T03:50:40;2.95;;;0.50;;
35959;SDS011;22043;50.970;7.192;2024-02-14T03:53:06;1.70;;;0.40;;
35959;SDS011;22043;50.970;7.192;2024-02-14T03:55:31;0.88;;;0.35;;
35959;SDS011;22043;50.970;7.192;2024-02-14T03:57:57;0.95;;;0.38;;
35959;SDS011;22043;50.970;7.192;2024-02-14T04:00:22;3.47;;;0.63;;
35959;SDS011;22043;50.970;7.192;2024-02-14T04:02:48;1.50;;;0.40;;
35959;SDS011;22043;50.970;7.192;2024-02-14T04:05:13;1.55;;;0.52;;
35959;SDS011;22043;50.970;7.192;2024-02-14T04:07:39;1.02;;;0.30;;
35959;SDS011;22043;50.970;7.192;2024-02-14T04:10:04;0.73;;;0.30;;
35959;SDS011;22043;50.970;7.192;2024-02-14T04:12:30;1.45;;;0.77;;
35959;SDS011;22043;50.970;7.192;2024-02-14T04:14:56;2.03;;;0.30;;
35959;SDS011;22043;50.970;7.192;2024-02-14T04:17:21;0.90;;;0.38;;
35959;SDS011;22043;50.970;7.192;2024-02-14T04:19:46;1.83;;;0.40;;
35959;SDS011;22043;50.970;7.192;2024-02-14T04:22:12;1.27;;;0.75;;
35959;SDS011;22043;50.970;7.192;2024-02-14T04:24:37;1.38;;;0.50;;
35959;SDS011;22043;50.970;7.192;2024-02-14T04:27:03;0.60;;;0.30;;
35959;SDS011;22043;50.970;7.192;2024-02-14T04:29:29;2.35;;;0.40;;
35959;SDS011;22043;50.970;7.192;2024-02-14T04:31:55;3.28;;;0.45;;
35959;SDS011;22043;50.970;7.192;2024-02-14T04:34:21;2.22;;;0.32;;
35959;SDS011;22043;50.970;7.192;2024-02-14T04:36:47;3.30;;;1.05;;
35959;SDS011;22043;50.970;7.192;2024-02-14T04:39:12;1.00;;;0.50;;
35959;SDS011;22043;50.970;7.192;2024-02-14T04:41:38;0.90;;;0.30;;
35959;SDS011;22043;50.970;7.192;2024-02-14T04:44:04;1.40;;;0.50;;
35959;SDS011;22043;50.970;7.192;2024-02-14T04:46:32;0.90;;;0.30;;
35959;SDS011;22043;50.970;7.192;2024-02-14T04:48:58;2.05;;;0.52;;
35959;SDS011;22043;50.970;7.192;2024-02-14T04:51:23;1.60;;;0.43;;
35959;SDS011;22043;50.970;7.192;2024-02-14T04:53:48;0.85;;;0.52;;
35959;SDS011;22043;50.970;7.192;2024-02-14T04:56:14;1.30;;;0.43;;
35959;SDS011;22043;50.970;7.192;2024-02-14T04:58:39;0.65;;;0.20;;
35959;SDS011;22043;50.970;7.192;2024-02-14T05:01:05;1.80;;;0.40;;
35959;SDS011;22043;50.970;7.192;2024-02-14T05:03:32;0.73;;;0.40;;
35959;SDS011;22043;50.970;7.192;2024-02-14T05:05:57;3.10;;;0.52;;
35959;SDS011;22043;50.970;7.192;2024-02-14T05:08:24;1.48;;;0.43;;
35959;SDS011;22043;50.970;7.192;2024-02-14T05:10:49;0.82;;;0.30;;
35959;SDS011;22043;50.970;7.192;2024-02-14T05:13:14;0.95;;;0.32;;
35959;SDS011;22043;50.970;7.192;2024-02-14T05:15:41;1.65;;;0.40;;
35959;SDS011;22043;50.970;7.192;2024-02-14T05:18:07;0.88;;;0.30;;
35959;SDS011;22043;50.970;7.192;2024-02-14T05:20:32;0.68;;;0.30;;
35959;SDS011;22043;50.970;7.192;2024-02-14T05:22:57;2.30;;;0.43;;
35959;SDS011;22043;50.970;7.192;2024-02-14T05:25:23;0.77;;;0.38;;
35959;SDS011;22043;50.970;7.192;2024-02-14T05:27:48;0.70;;;0.40;;
35959;SDS011;22043;50.970;7.192;2024-02-14T05:30:14;1.27;;;0.47;;
35959;SDS011;22043;50.970;7.192;2024-02-14T05:32:39;0.65;;;0.20;;
35959;SDS011;22043;50.970;7.192;2024-02-14T05:35:05;0.60;;;0.30;;
35959;SDS011;22043;50.970;7.192;2024-02-14T05:37:31;0.47;;;0.30;;
35959;SDS011;22043;50.970;7.192;2024-02-14T05:39:56;0.52;;;0.32;;
35959;SDS011;22043;50.970;7.192;2024-02-14T05:42:22;0.95;;;0.50;;
35959;SDS011;22043;50.970;7.192;2024-02-14T05:44:47;2.10;;;0.47;;
35959;SDS011;22043;50.970;7.192;2024-02-14T05:47:13;2.08;;;0.50;;
35959;SDS011;22043;50.970;7.192;2024-02-14T05:49:39;0.70;;;0.35;;
35959;SDS011;22043;50.970;7.192;2024-02-14T05:52:08;0.60;;;0.32;;
35959;SDS011;22043;50.970;7.192;2024-02-14T05:54:33;2.00;;;0.57;;
35959;SDS011;22043;50.970;7.192;2024-02-14T05:56:59;1.48;;;0.50;;
35959;SDS011;22043;50.970;7.192;2024-02-14T05:59:25;1.15;;;0.32;;
35959;SDS011;22043;50.970;7.192;2024-02-14T06:01:50;1.80;;;0.65;;
35959;SDS011;22043;50.970;7.192;2024-02-14T06:04:15;1.85;;;0.60;;
35959;SDS011;22043;50.970;7.192;2024-02-14T06:06:41;1.75;;;0.40;;
35959;SDS011;22043;50.970;7.192;2024-02-14T06:09:06;1.25;;;0.52;;
35959;SDS011;22043;50.970;7.192;2024-02-14T06:11:35;1.70;;;0.88;;
35959;SDS011;22043;50.970;7.192;2024-02-14T06:14:04;6.05;;;1.40;;
35959;SDS011;22043;50.970;7.192;2024-02-14T06:16:32;1.08;;;0.60;;
35959;SDS011;22043;50.970;7.192;2024-02-14T06:18:58;2.05;;;0.40;;
35959;SDS011;22043;50.970;7.192;2024-02-14T06:21:24;1.02;;;0.40;;
35959;SDS011;22043;50.970;7.192;2024-02-14T06:23:50;1.50;;;0.50;;
35959;SDS011;22043;50.970;7.192;2024-02-14T06:26:16;5.55;;;0.90;;
35959;SDS011;22043;50.970;7.192;2024-02-14T06:28:42;2.38;;;1.20;;
35959;SDS011;22043;50.970;7.192;2024-02-14T06:31:09;2.17;;;0.98;;
35959;SDS011;22043;50.970;7.192;2024-02-14T06:33:35;1.00;;;0.52;;
35959;SDS011;22043;50.970;7.192;2024-02-14T06:36:00;1.45;;;0.70;;
35959;SDS011;22043;50.970;7.192;2024-02-14T06:38:26;2.20;;;0.60;;
35959;SDS011;22043;50.970;7.192;2024-02-14T06:40:51;1.88;;;0.70;;
35959;SDS011;22043;50.970;7.192;2024-02-14T06:43:17;1.67;;;0.80;;
35959;SDS011;22043;50.970;7.192;2024-02-14T06:45:42;2.03;;;0.50;;
35959;SDS011;22043;50.970;7.192;2024-02-14T06:48:08;2.10;;;1.20;;
35959;SDS011;22043;50.970;7.192;2024-02-14T06:50:34;3.53;;;1.10;;
35959;SDS011;22043;50.970;7.192;2024-02-14T06:52:59;4.00;;;0.80;;
35959;SDS011;22043;50.970;7.192;2024-02-14T06:55:28;1.17;;;0.70;;
35959;SDS011;22043;50.970;7.192;2024-02-14T06:57:55;2.63;;;0.90;;
35959;SDS011;22043;50.970;7.192;2024-02-14T07:00:21;4.68;;;0.85;;
35959;SDS011;22043;50.970;7.192;2024-02-14T07:02:47;3.55;;;0.70;;
35959;SDS011;22043;50.970;7.192;2024-02-14T07:05:13;3.35;;;0.88;;
35959;SDS011;22043;50.970;7.192;2024-02-14T07:07:39;3.55;;;1.00;;
35959;SDS011;22043;50.970;7.192;2024-02-14T07:10:05;2.45;;;0.77;;
35959;SDS011;22043;50.970;7.192;2024-02-14T07:12:32;2.00;;;0.73;;
35959;SDS011;22043;50.970;7.192;2024-02-14T07:14:57;2.05;;;0.65;;
35959;SDS011;22043;50.970;7.192;2024-02-14T07:17:22;2.65;;;0.80;;
35959;SDS011;22043;50.970;7.192;2024-02-14T07:19:48;2.15;;;0.80;;
35959;SDS011;22043;50.970;7.192;2024-02-14T07:22:15;1.77;;;0.57;;
35959;SDS011;22043;50.970;7.192;2024-02-14T07:24:41;3.83;;;0.68;;
35959;SDS011;22043;50.970;7.192;2024-02-14T07:27:08;1.60;;;0.57;;
35959;SDS011;22043;50.970;7.192;2024-02-14T07:29:33;1.23;;;0.50;;
35959;SDS011;22043;50.970;7.192;2024-02-14T07:32:02;1.70;;;0.80;;
35959;SDS011;22043;50.970;7.192;2024-02-14T07:34:27;1.58;;;0.60;;
35959;SDS011;22043;50.970;7.192;2024-02-14T07:36:53;1.20;;;0.55;;
35959;SDS011;22043;50.970;7.192;2024-02-14T07:39:19;3.45;;;0.60;;
35959;SDS011;22043;50.970;7.192;2024-02-14T07:41:44;1.88;;;0.90;;
35959;SDS011;22043;50.970;7.192;2024-02-14T07:44:10;2.97;;;0.45;;
35959;SDS011;22043;50.970;7.192;2024-02-14T07:46:36;0.85;;;0.50;;
35959;SDS011;22043;50.970;7.192;2024-02-14T07:49:01;5.85;;;1.08;;
35959;SDS011;22043;50.970;7.192;2024-02-14T07:51:27;1.58;;;0.65;;
35959;SDS011;22043;50.970;7.192;2024-02-14T07:53:54;3.47;;;0.80;;
35959;SDS011;22043;50.970;7.192;2024-02-14T07:56:19;2.90;;;0.50;;
35959;SDS011;22043;50.970;7.192;2024-02-14T07:58:45;1.48;;;0.40;;
35959;SDS011;22043;50.970;7.192;2024-02-14T08:01:10;1.25;;;0.60;;
35959;SDS011;22043;50.970;7.192;2024-02-14T08:03:36;1.20;;;0.70;;
35959;SDS011;22043;50.970;7.192;2024-02-14T08:06:01;1.27;;;0.63;;
35959;SDS011;22043;50.970;7.192;2024-02-14T08:08:26;2.88;;;0.57;;
35959;SDS011;22043;50.970;7.192;2024-02-14T08:10:52;1.02;;;0.65;;
35959;SDS011;22043;50.970;7.192;2024-02-14T08:13:18;2.88;;;0.82;;
35959;SDS011;22043;50.970;7.192;2024-02-14T08:15:43;4.25;;;0.57;;
35959;SDS011;22043;50.970;7.192;2024-02-14T08:18:09;1.98;;;1.13;;
35959;SDS011;22043;50.970;7.192;2024-02-14T08:20:34;1.45;;;0.60;;
35959;SDS011;22043;50.970;7.192;2024-02-14T08:22:59;3.97;;;1.40;;
35959;SDS011;22043;50.970;7.192;2024-02-14T08:25:25;6.60;;;1.20;;
35959;SDS011;22043;50.970;7.192;2024-02-14T08:27:51;1.80;;;0.70;;
35959;SDS011;22043;50.970;7.192;2024-02-14T08:30:17;1.23;;;0.40;;
35959;SDS011;22043;50.970;7.192;2024-02-14T08:32:44;1.63;;;0.60;;
35959;SDS011;22043;50.970;7.192;2024-02-14T08:35:10;1.13;;;0.40;;
35959;SDS011;22043;50.970;7.192;2024-02-14T08:37:36;1.23;;;0.50;;
35959;SDS011;22043;50.970;7.192;2024-02-14T08:40:03;0.52;;;0.30;;
35959;SDS011;22043;50.970;7.192;2024-02-14T08:42:33;3.03;;;0.45;;
35959;SDS011;22043;50.970;7.192;2024-02-14T08:44:59;0.50;;;0.43;;
35959;SDS011;22043;50.970;7.192;2024-02-14T08:47:24;2.67;;;0.70;;
35959;SDS011;22043;50.970;7.192;2024-02-14T08:49:51;1.25;;;0.40;;
35959;SDS011;22043;50.970;7.192;2024-02-14T08:52:16;0.73;;;0.35;;
35959;SDS011;22043;50.970;7.192;2024-02-14T08:54:42;1.15;;;0.32;;
35959;SDS011;22043;50.970;7.192;2024-02-14T08:57:07;1.52;;;0.90;;
35959;SDS011;22043;50.970;7.192;2024-02-14T08:59:32;1.33;;;0.60;;
35959;SDS011;22043;50.970;7.192;2024-02-14T09:01:58;1.75;;;0.50;;
35959;SDS011;22043;50.970;7.192;2024-02-14T09:04:24;3.03;;;1.08;;
35959;SDS011;22043;50.970;7.192;2024-02-14T09:06:49;1.13;;;0.50;;
35959;SDS011;22043;50.970;7.192;2024-02-14T09:09:15;0.93;;;0.40;;
35959;SDS011;22043;50.970;7.192;2024-02-14T09:11:40;1.50;;;0.50;;
35959;SDS011;22043;50.970;7.192;2024-02-14T09:14:06;0.80;;;0.30;;
35959;SDS011;22043;50.970;7.192;2024-02-14T09:16:32;0.60;;;0.50;;
35959;SDS011;22043;50.970;7.192;2024-02-14T09:18:59;3.03;;;0.77;;
35959;SDS011;22043;50.970;7.192;2024-02-14T09:21:24;4.40;;;0.60;;
35959;SDS011;22043;50.970;7.192;2024-02-14T09:23:50;2.17;;;0.30;;
35959;SDS011;22043;50.970;7.192;2024-02-14T09:26:15;1.42;;;0.38;;
35959;SDS011;22043;50.970;7.192;2024-02-14T09:28:43;1.45;;;0.50;;
35959;SDS011;22043;50.970;7.192;2024-02-14T09:31:09;1.02;;;0.30;;
35959;SDS011;22043;50.970;7.192;2024-02-14T09:33:36;0.45;;;0.30;;
35959;SDS011;22043;50.970;7.192;2024-02-14T09:36:02;2.85;;;0.88;;
35959;SDS011;22043;50.970;7.192;2024-02-14T09:38:29;1.38;;;0.65;;
35959;SDS011;22043;50.970;7.192;2024-02-14T09:41:05;1.23;;;0.40;;
35959;SDS011;22043;50.970;7.192;2024-02-14T09:43:40;1.15;;;0.30;;
35959;SDS011;22043;50.970;7.192;2024-02-14T09:46:08;2.50;;;0.40;;
35959;SDS011;22043;50.970;7.192;2024-02-14T09:48:34;0.57;;;0.20;;
35959;SDS011;22043;50.970;7.192;2024-02-14T09:51:03;1.02;;;0.60;;
35959;SDS011;22043;50.970;7.192;2024-02-14T09:53:28;1.95;;;0.35;;
35959;SDS011;22043;50.970;7.192;2024-02-14T09:55:54;0.88;;;0.30;;
35959;SDS011;22043;50.970;7.192;2024-02-14T09:58:20;1.88;;;0.60;;
35959;SDS011;22043;50.970;7.192;2024-02-14T10:00:46;1.17;;;0.30;;
35959;SDS011;22043;50.970;7.192;2024-02-14T10:03:11;1.38;;;0.60;;
35959;SDS011;22043;50.970;7.192;2024-02-14T10:05:37;0.40;;;0.30;;
35959;SDS011;22043;50.970;7.192;2024-02-14T10:08:03;3.03;;;0.63;;
35959;SDS011;22043;50.970;7.192;2024-02-14T10:10:29;1.50;;;0.40;;
35959;SDS011;22043;50.970;7.192;2024-02-14T10:15:23;1.88;;;0.30;;
35959;SDS011;22043;50.970;7.192;2024-02-14T10:17:48;0.95;;;0.40;;
35959;SDS011;22043;50.970;7.192;2024-02-14T10:20:16;1.88;;;0.30;;
35959;SDS011;22043;50.970;7.192;2024-02-14T10:22:42;1.63;;;0.28;;
35959;SDS011;22043;50.970;7.192;2024-02-14T10:25:09;1.67;;;0.77;;
35959;SDS011;22043;50.970;7.192;2024-02-14T10:27:36;1.98;;;0.52;;
35959;SDS011;22043;50.970;7.192;2024-02-14T10:30:04;2.17;;;0.50;;
35959;SDS011;22043;50.970;7.192;2024-02-14T10:32:36;1.45;;;0.50;;
35959;SDS011;22043;50.970;7.192;2024-02-14T10:35:04;2.75;;;0.20;;
35959;SDS011;22043;50.970;7.192;2024-02-14T10:37:34;2.05;;;0.75;;
35959;SDS011;22043;50.970;7.192;2024-02-14T10:39:59;2.60;;;0.30;;
35959;SDS011;22043;50.970;7.192;2024-02-14T10:42:27;1.40;;;0.38;;
35959;SDS011;22043;50.970;7.192;2024-02-14T10:44:54;1.50;;;0.30;;
35959;SDS011;22043;50.970;7.192;2024-02-14T10:47:20;1.37;;;0.37;;
35959;SDS011;22043;50.970;7.192;2024-02-14T10:49:48;1.45;;;0.40;;
35959;SDS011;22043;50.970;7.192;2024-02-14T10:52:16;1.15;;;0.30;;
35959;SDS011;22043;50.970;7.192;2024-02-14T10:54:43;1.40;;;0.82;;
35959;SDS011;22043;50.970;7.192;2024-02-14T10:57:17;3.97;;;0.40;;
35959;SDS011;22043;50.970;7.192;2024-02-14T10:59:45;1.48;;;0.20;;
35959;SDS011;22043;50.970;7.192;2024-02-14T11:02:11;4.55;;;0.52;;
35959;SDS011;22043;50.970;7.192;2024-02-14T11:04:37;4.40;;;1.50;;
35959;SDS011;22043;50.970;7.192;2024-02-14T11:07:03;1.17;;;0.52;;
35959;SDS011;22043;50.970;7.192;2024-02-14T11:09:37;1.25;;;0.30;;
35959;SDS011;22043;50.970;7.192;2024-02-14T11:12:04;2.72;;;0.40;;
35959;SDS011;22043;50.970;7.192;2024-02-14T11:14:33;1.75;;;0.60;;
35959;SDS011;22043;50.970;7.192;2024-02-14T11:17:01;2.03;;;0.60;;
35959;SDS011;22043;50.970;7.192;2024-02-14T11:19:30;4.82;;;1.40;;
35959;SDS011;22043;50.970;7.192;2024-02-14T11:21:58;4.20;;;0.70;;
35959;SDS011;22043;50.970;7.192;2024-02-14T11:24:28;3.40;;;0.40;;
35959;SDS011;22043;50.970;7.192;2024-02-14T11:26:56;1.00;;;0.17;;
35959;SDS011;22043;50.970;7.192;2024-02-14T11:29:28;0.43;;;0.20;;
35959;SDS011;22043;50.970;7.192;2024-02-14T11:31:57;1.05;;;0.32;;
35959;SDS011;22043;50.970;7.192;2024-02-14T11:34:24;1.98;;;0.77;;
35959;SDS011;22043;50.970;7.192;2024-02-14T11:36:49;2.63;;;0.45;;
35959;SDS011;22043;50.970;7.192;2024-02-14T11:39:16;10.73;;;1.17;;
35959;SDS011;22043;50.970;7.192;2024-02-14T11:41:42;1.90;;;0.40;;
35959;SDS011;22043;50.970;7.192;2024-02-14T11:44:07;2.53;;;1.00;;
35959;SDS011;22043;50.970;7.192;2024-02-14T11:46:34;3.13;;;0.65;;
35959;SDS011;22043;50.970;7.192;2024-02-14T11:49:04;0.25;;;0.20;;
35959;SDS011;22043;50.970;7.192;2024-02-14T11:51:31;1.67;;;0.40;;
35959;SDS011;22043;50.970;7.192;2024-02-14T11:56:31;2.67;;;0.30;;
35959;SDS011;22043;50.970;7.192;2024-02-14T11:59:00;1.45;;;0.40;;
35959;SDS011;22043;50.970;7.192;2024-02-14T12:01:33;1.80;;;0.40;;
35959;SDS011;22043;50.970;7.192;2024-02-14T12:03:59;0.85;;;0.47;;
35959;SDS011;22043;50.970;7.192;2024-02-14T12:06:28;1.80;;;0.30;;
35959;SDS011;22043;50.970;7.192;2024-02-14T12:08:57;1.77;;;0.32;;
35959;SDS011;22043;50.970;7.192;2024-02-14T12:11:26;0.95;;;0.35;;
35959;SDS011;22043;50.970;7.192;2024-02-14T12:13:52;0.73;;;0.30;;
35959;SDS011;22043;50.970;7.192;2024-02-14T12:16:21;1.35;;;0.20;;
35959;SDS011;22043;50.970;7.192;2024-02-14T12:18:47;1.92;;;0.20;;
35959;SDS011;22043;50.970;7.192;2024-02-14T12:21:13;0.35;;;0.20;;
35959;SDS011;22043;50.970;7.192;2024-02-14T12:23:38;3.03;;;0.28;;
35959;SDS011;22043;50.970;7.192;2024-02-14T12:26:04;0.52;;;0.20;;
35959;SDS011;22043;50.970;7.192;2024-02-14T12:28:30;0.40;;;0.10;;
35959;SDS011;22043;50.970;7.192;2024-02-14T12:30:56;2.40;;;0.95;;
35959;SDS011;22043;50.970;7.192;2024-02-14T12:33:22;3.67;;;0.40;;
35959;SDS011;22043;50.970;7.192;2024-02-14T12:35:49;0.60;;;0.30;;
35959;SDS011;22043;50.970;7.192;2024-02-14T12:38:17;1.55;;;0.40;;
35959;SDS011;22043;50.970;7.192;2024-02-14T12:40:43;1.30;;;0.38;;
35959;SDS011;22043;50.970;7.192;2024-02-14T12:43:10;1.77;;;0.70;;
35959;SDS011;22043;50.970;7.192;2024-02-14T12:45:39;4.47;;;1.52;;
35959;SDS011;22043;50.970;7.192;2024-02-14T12:48:08;4.63;;;1.10;;
35959;SDS011;22043;50.970;7.192;2024-02-14T12:50:35;4.57;;;0.55;;
35959;SDS011;22043;50.970;7.192;2024-02-14T12:53:12;3.65;;;1.00;;
35959;SDS011;22043;50.970;7.192;2024-02-14T12:55:37;2.92;;;0.60;;
35959;SDS011;22043;50.970;7.192;2024-02-14T12:58:03;1.63;;;0.40;;
35959;SDS011;22043;50.970;7.192;2024-02-14T13:00:29;2.70;;;0.50;;
35959;SDS011;22043;50.970;7.192;2024-02-14T13:02:56;2.23;;;0.30;;
35959;SDS011;22043;50.970;7.192;2024-02-14T13:05:22;2.53;;;0.50;;
35959;SDS011;22043;50.970;7.192;2024-02-14T13:07:47;0.63;;;0.32;;
35959;SDS011;22043;50.970;7.192;2024-02-14T13:10:12;1.42;;;0.70;;
35959;SDS011;22043;50.970;7.192;2024-02-14T13:12:38;3.97;;;0.65;;
35959;SDS011;22043;50.970;7.192;2024-02-14T13:15:04;0.10;;;0.10;;
35959;SDS011;22043;50.970;7.192;2024-02-14T13:17:30;0.10;;;0.10;;
35959;SDS011;22043;50.970;7.192;2024-02-14T13:19:56;0.88;;;0.20;;
35959;SDS011;22043;50.970;7.192;2024-02-14T13:22:22;0.50;;;0.30;;
35959;SDS011;22043;50.970;7.192;2024-02-14T13:24:48;0.28;;;0.10;;
35959;SDS011;22043;50.970;7.192;2024-02-14T13:27:13;0.20;;;0.10;;
35959;SDS011;22043;50.970;7.192;2024-02-14T13:29:39;1.05;;;0.20;;
35959;SDS011;22043;50.970;7.192;2024-02-14T13:32:05;0.47;;;0.10;;
35959;SDS011;22043;50.970;7.192;2024-02-14T13:34:32;0.10;;;0.10;;
35959;SDS011;22043;50.970;7.192;2024-02-14T13:36:58;0.77;;;0.17;;
35959;SDS011;22043;50.970;7.192;2024-02-14T13:39:24;0.68;;;0.20;;
35959;SDS011;22043;50.970;7.192;2024-02-14T13:41:50;0.35;;;0.10;;
35959;SDS011;22043;50.970;7.192;2024-02-14T13:44:16;1.25;;;0.10;;
35959;SDS011;22043;50.970;7.192;2024-02-14T13:46:45;2.05;;;0.30;;
35959;SDS011;22043;50.970;7.192;2024-02-14T13:49:11;0.30;;;0.20;;
35959;SDS011;22043;50.970;7.192;2024-02-14T13:51:38;0.10;;;0.10;;
35959;SDS011;22043;50.970;7.192;2024-02-14T13:54:03;0.15;;;0.10;;
35959;SDS011;22043;50.970;7.192;2024-02-14T13:56:29;0.13;;;0.10;;
35959;SDS011;22043;50.970;7.192;2024-02-14T13:58:54;0.32;;;0.20;;
35959;SDS011;22043;50.970;7.192;2024-02-14T14:01:20;2.28;;;0.90;;
35959;SDS011;22043;50.970;7.192;2024-02-14T14:03:45;0.77;;;0.30;;
35959;SDS011;22043;50.970;7.192;2024-02-14T14:06:12;0.40;;;0.10;;
35959;SDS011;22043;50.970;7.192;2024-02-14T14:08:38;0.43;;;0.10;;
35959;SDS011;22043;50.970;7.192;2024-02-14T14:11:04;0.40;;;0.10;;
35959;SDS011;22043;50.970;7.192;2024-02-14T14:13:30;2.00;;;0.30;;
35959;SDS011;22043;50.970;7.192;2024-02-14T14:15:58;0.35;;;0.10;;
35959;SDS011;22043;50.970;7.192;2024-02-14T14:18:24;0.10;;;0.10;;
35959;SDS011;22043;50.970;7.192;2024-02-14T14:20:49;1.95;;;0.30;;
35959;SDS011;22043;50.970;7.192;2024-02-14T14:23:15;2.90;;;0.55;;
35959;SDS011;22043;50.970;7.192;2024-02-14T14:25:41;1.27;;;0.17;;
35959;SDS011;22043;50.970;7.192;2024-02-14T14:28:06;1.70;;;0.20;;
35959;SDS011;22043;50.970;7.192;2024-02-14T14:30:32;0.38;;;0.22;;
35959;SDS011;22043;50.970;7.192;2024-02-14T14:32:58;1.10;;;0.30;;
35959;SDS011;22043;50.970;7.192;2024-02-14T14:35:23;0.43;;;0.20;;
35959;SDS011;22043;50.970;7.192;2024-02-14T14:37:49;1.10;;;0.68;;
35959;SDS011;22043;50.970;7.192;2024-02-14T14:40:14;1.70;;;0.73;;
35959;SDS011;22043;50.970;7.192;2024-02-14T14:42:39;1.80;;;0.60;;
35959;SDS011;22043;50.970;7.192;2024-02-14T14:45:05;1.60;;;0.70;;
35959;SDS011;22043;50.970;7.192;2024-02-14T14:47:31;0.70;;;0.47;;
35959;SDS011;22043;50.970;7.192;2024-02-14T14:49:56;1.65;;;0.75;;